Time;durP1;ratioP1;P1;durP2;ratioP2;P2;SDS_P1;SDS_P2;PMS_P1;PMS_P2;Temp;Humidity;BMP_temperature;BMP_pressure;BME280_temperature;BME280_humidity;BME280_pressure;Samples;Min_cycle;Max_cycle;Signal;HPM_P1;HPM_P2
2024/04/06 00:01:16;;;;;;;2.42;1.38;;;;;;;;;;5012651;28;20049;-67
2024/04/06 00:03:41;;;;;;;2.42;1.48;;;;;;;;;;5013658;28;20124;-66
2024/04/06 00:06:07;;;;;;;2.33;1.33;;;;;;;;;;5014079;28;20033;-66
2024/04/06 00:08:32;;;;;;;2.13;1.60;;;;;;;;;;5013509;28;20042;-67
2024/04/06 00:10:58;;;;;;;5.20;1.85;;;;;;;;;;5013823;28;20515;-66
2024/04/06 00:13:25;;;;;;;2.60;1.52;;;;;;;;;;5013354;28;20038;-66
2024/04/06 00:15:50;;;;;;;3.95;1.52;;;;;;;;;;5013730;28;20445;-66
2024/04/06 00:18:16;;;;;;;2.00;1.80;;;;;;;;;;5013588;28;20104;-66
2024/04/06 00:20:41;;;;;;;4.80;1.63;;;;;;;;;;5045611;28;20069;-66
2024/04/06 00:23:06;;;;;;;5.32;2.08;;;;;;;;;;5012783;28;20042;-66
2024/04/06 00:25:31;;;;;;;3.10;1.63;;;;;;;;;;5013626;28;20387;-66
2024/04/06 00:27:57;;;;;;;4.00;1.75;;;;;;;;;;5013033;28;20099;-66
2024/04/06 00:30:22;;;;;;;5.43;2.13;;;;;;;;;;5013582;28;20095;-66
2024/04/06 00:32:47;;;;;;;4.05;2.05;;;;;;;;;;5011352;28;20446;-67
2024/04/06 00:35:13;;;;;;;4.40;1.70;;;;;;;;;;5013961;28;20042;-66
2024/04/06 00:37:38;;;;;;;3.10;1.65;;;;;;;;;;5012968;28;20042;-66
2024/04/06 00:40:04;;;;;;;2.88;1.75;;;;;;;;;;5012675;28;20054;-66
2024/04/06 00:42:29;;;;;;;1.67;1.23;;;;;;;;;;5012867;28;20491;-66
2024/04/06 00:44:55;;;;;;;1.77;1.60;;;;;;;;;;5013318;28;20524;-66
2024/04/06 00:47:20;;;;;;;4.32;2.10;;;;;;;;;;5012798;28;20120;-66
2024/04/06 00:49:45;;;;;;;2.30;1.48;;;;;;;;;;5013261;28;20077;-66
2024/04/06 00:52:11;;;;;;;1.52;1.23;;;;;;;;;;5012782;28;20117;-66
2024/04/06 00:54:36;;;;;;;2.13;1.15;;;;;;;;;;5013174;28;20171;-67
2024/04/06 00:57:01;;;;;;;4.15;1.77;;;;;;;;;;5044298;28;20076;-66
2024/04/06 00:59:27;;;;;;;3.25;1.80;;;;;;;;;;5013130;28;20481;-67
2024/04/06 01:01:53;;;;;;;5.88;1.95;;;;;;;;;;5012517;28;20048;-67
2024/04/06 01:04:18;;;;;;;2.83;1.45;;;;;;;;;;5012850;28;20139;-67
2024/04/06 01:06:44;;;;;;;5.95;2.25;;;;;;;;;;5012530;28;20053;-67
2024/04/06 01:09:09;;;;;;;1.77;1.30;;;;;;;;;;5012808;28;20038;-67
2024/04/06 01:11:36;;;;;;;4.88;1.63;;;;;;;;;;5012719;28;20049;-67
2024/04/06 01:14:03;;;;;;;2.90;1.48;;;;;;;;;;5012135;28;20100;-67
2024/04/06 01:16:28;;;;;;;2.83;1.35;;;;;;;;;;5012624;28;20448;-67
2024/04/06 01:18:53;;;;;;;4.15;1.73;;;;;;;;;;5043821;28;20049;-67
2024/04/06 01:21:19;;;;;;;1.52;1.15;;;;;;;;;;5012615;28;20037;-67
2024/04/06 01:23:45;;;;;;;3.70;1.30;;;;;;;;;;5012398;28;20084;-68
2024/04/06 01:26:11;;;;;;;5.35;1.67;;;;;;;;;;5011265;28;20073;-67
2024/04/06 01:28:36;;;;;;;5.32;1.63;;;;;;;;;;5027074;28;20061;-67
2024/04/06 01:31:01;;;;;;;1.58;1.10;;;;;;;;;;5012284;28;20091;-67
2024/04/06 01:33:27;;;;;;;4.25;2.10;;;;;;;;;;5011655;28;20063;-68
2024/04/06 01:35:52;;;;;;;2.60;1.50;;;;;;;;;;5012206;28;20045;-67
2024/04/06 01:38:17;;;;;;;2.22;1.05;;;;;;;;;;5011778;28;20437;-68
2024/04/06 01:40:43;;;;;;;3.65;1.73;;;;;;;;;;5044387;28;20052;-67
2024/04/06 01:43:08;;;;;;;2.20;1.58;;;;;;;;;;5026647;28;20038;-67
2024/04/06 01:45:34;;;;;;;2.25;1.30;;;;;;;;;;5012245;28;20668;-67
2024/04/06 01:47:59;;;;;;;3.67;1.65;;;;;;;;;;5011519;28;20513;-67
2024/04/06 01:50:24;;;;;;;2.60;1.50;;;;;;;;;;5011835;28;20104;-67
2024/04/06 01:52:50;;;;;;;5.60;1.92;;;;;;;;;;5010453;28;20135;-67
2024/04/06 01:55:15;;;;;;;4.28;1.33;;;;;;;;;;5012462;28;20044;-67
2024/04/06 01:57:40;;;;;;;2.75;1.30;;;;;;;;;;5026443;28;20041;-68
2024/04/06 02:00:08;;;;;;;2.70;1.33;;;;;;;;;;5026894;28;20536;-67
2024/04/06 02:02:37;;;;;;;2.03;1.38;;;;;;;;;;5011414;28;20038;-67
2024/04/06 02:05:03;;;;;;;5.38;1.90;;;;;;;;;;5011721;28;20445;-67
2024/04/06 02:07:28;;;;;;;2.58;1.60;;;;;;;;;;5042847;28;20398;-67
2024/04/06 02:09:54;;;;;;;7.53;1.90;;;;;;;;;;5011742;28;20049;-66
2024/04/06 02:12:20;;;;;;;7.47;2.05;;;;;;;;;;5011136;28;20405;-66
2024/04/06 02:14:47;;;;;;;2.60;1.58;;;;;;;;;;5043745;28;20042;-66
2024/04/06 02:17:13;;;;;;;3.50;1.40;;;;;;;;;;5011158;28;20041;-66
2024/04/06 02:19:38;;;;;;;1.83;1.17;;;;;;;;;;5011564;28;20041;-66
2024/04/06 02:22:03;;;;;;;4.30;1.40;;;;;;;;;;5010791;28;20081;-66
2024/04/06 02:24:30;;;;;;;3.33;1.40;;;;;;;;;;5011417;28;20045;-66
2024/04/06 02:26:56;;;;;;;6.13;2.05;;;;;;;;;;5010934;28;20628;-66
2024/04/06 02:29:21;;;;;;;3.33;1.67;;;;;;;;;;5011389;28;20057;-66
2024/04/06 02:31:46;;;;;;;3.67;1.85;;;;;;;;;;5010640;28;20046;-67
2024/04/06 02:34:11;;;;;;;2.95;1.52;;;;;;;;;;5011713;28;20072;-66
2024/04/06 02:36:38;;;;;;;2.45;1.52;;;;;;;;;;5011155;28;20092;-67
2024/04/06 02:39:04;;;;;;;6.00;1.58;;;;;;;;;;5010687;28;20046;-67
2024/04/06 02:41:29;;;;;;;2.63;1.40;;;;;;;;;;5026308;28;20034;-66
2024/04/06 02:43:54;;;;;;;2.25;1.40;;;;;;;;;;5010628;28;20038;-67
2024/04/06 02:46:19;;;;;;;2.65;1.55;;;;;;;;;;5011108;28;20045;-66
2024/04/06 02:48:45;;;;;;;2.67;1.55;;;;;;;;;;5011004;28;20046;-67
2024/04/06 02:51:10;;;;;;;3.30;1.45;;;;;;;;;;5010889;28;20405;-66
2024/04/06 02:53:35;;;;;;;2.67;1.60;;;;;;;;;;5009131;28;20054;-66
2024/04/06 02:56:01;;;;;;;2.58;1.55;;;;;;;;;;5011013;28;20046;-67
2024/04/06 02:58:26;;;;;;;3.15;1.38;;;;;;;;;;5042124;28;20127;-67
2024/04/06 03:00:51;;;;;;;2.40;1.50;;;;;;;;;;5010916;28;20041;-67
2024/04/06 03:03:17;;;;;;;5.28;1.67;;;;;;;;;;5010219;28;20517;-66
2024/04/06 03:05:42;;;;;;;4.50;2.03;;;;;;;;;;5043009;28;20045;-66
2024/04/06 03:08:07;;;;;;;2.13;1.33;;;;;;;;;;5010284;28;20103;-66
2024/04/06 03:10:33;;;;;;;2.22;1.17;;;;;;;;;;5042711;28;20088;-66
2024/04/06 03:12:59;;;;;;;6.15;1.38;;;;;;;;;;5008623;28;20049;-67
2024/04/06 03:15:25;;;;;;;4.07;1.50;;;;;;;;;;5017879;28;20072;-66
2024/04/06 03:17:52;;;;;;;2.53;1.27;;;;;;;;;;5008805;28;20405;-66
2024/04/06 03:20:17;;;;;;;4.22;1.35;;;;;;;;;;5011011;28;20112;-68
2024/04/06 03:22:59;;;;;;;3.22;1.45;;;;;;;;;;5010655;28;20069;-68
2024/04/06 03:25:24;;;;;;;4.45;1.52;;;;;;;;;;5010623;28;20121;-67
2024/04/06 03:27:49;;;;;;;2.92;1.65;;;;;;;;;;5010218;28;20061;-68
2024/04/06 03:30:15;;;;;;;5.20;1.30;;;;;;;;;;5011129;28;20120;-67
2024/04/06 03:32:42;;;;;;;2.28;1.27;;;;;;;;;;5019365;28;20509;-67
2024/04/06 03:35:09;;;;;;;5.20;1.38;;;;;;;;;;5006337;28;20051;-67
2024/04/06 03:37:38;;;;;;;1.50;1.02;;;;;;;;;;5006849;28;20425;-67
2024/04/06 03:40:06;;;;;;;4.03;1.77;;;;;;;;;;5005000;28;20042;-67
2024/04/06 03:42:33;;;;;;;2.13;1.17;;;;;;;;;;5002300;28;20512;-67
2024/04/06 03:44:58;;;;;;;2.75;1.33;;;;;;;;;;5041672;28;20042;-68
2024/04/06 03:47:24;;;;;;;1.20;1.10;;;;;;;;;;5010022;28;20048;-67
2024/04/06 03:49:49;;;;;;;5.47;1.20;;;;;;;;;;5010164;28;20050;-68
2024/04/06 03:52:14;;;;;;;2.10;1.00;;;;;;;;;;5010070;28;20076;-67
2024/04/06 03:54:41;;;;;;;3.30;1.20;;;;;;;;;;5010289;28;20520;-67
2024/04/06 03:57:06;;;;;;;6.20;1.40;;;;;;;;;;5010013;28;20060;-67
2024/04/06 03:59:32;;;;;;;3.13;1.73;;;;;;;;;;5010365;28;20042;-67
2024/04/06 04:01:57;;;;;;;3.25;0.90;;;;;;;;;;5008492;28;20111;-68
2024/04/06 04:04:22;;;;;;;1.23;0.73;;;;;;;;;;5010273;28;20041;-68
2024/04/06 04:06:47;;;;;;;7.35;1.58;;;;;;;;;;5009680;28;20041;-68
2024/04/06 04:09:16;;;;;;;2.90;1.25;;;;;;;;;;5010565;28;21547;-67
2024/04/06 04:11:42;;;;;;;3.28;1.33;;;;;;;;;;5009375;28;20073;-68
2024/04/06 04:14:07;;;;;;;3.45;1.17;;;;;;;;;;5010308;28;20045;-67
2024/04/06 04:16:33;;;;;;;1.60;1.25;;;;;;;;;;5012249;28;20038;-68
2024/04/06 04:18:58;;;;;;;3.28;1.73;;;;;;;;;;5013112;28;20519;-68
2024/04/06 04:21:24;;;;;;;4.57;1.48;;;;;;;;;;5013889;28;20042;-67
2024/04/06 04:23:49;;;;;;;2.88;2.08;;;;;;;;;;5011633;28;20156;-68
2024/04/06 04:26:15;;;;;;;2.97;1.60;;;;;;;;;;5014002;28;20049;-68
2024/04/06 04:28:40;;;;;;;4.40;1.33;;;;;;;;;;5013046;28;20041;-68
2024/04/06 04:31:17;;;;;;;1.80;1.30;;;;;;;;;;5013602;28;20053;-67
2024/04/06 04:33:42;;;;;;;2.30;1.60;;;;;;;;;;5012986;28;20046;-67
2024/04/06 04:36:10;;;;;;;4.45;1.50;;;;;;;;;;5013546;28;20043;-67
2024/04/06 04:38:35;;;;;;;1.85;1.30;;;;;;;;;;5012980;28;20048;-67
2024/04/06 04:41:00;;;;;;;1.75;1.20;;;;;;;;;;5012949;28;20410;-66
2024/04/06 04:43:26;;;;;;;2.05;1.20;;;;;;;;;;5012726;28;20030;-66
2024/04/06 04:45:51;;;;;;;2.22;1.02;;;;;;;;;;5013158;28;20042;-66
2024/04/06 04:48:17;;;;;;;2.88;1.38;;;;;;;;;;5012601;28;20026;-67
2024/04/06 04:50:42;;;;;;;2.90;1.00;;;;;;;;;;5012966;28;20525;-67
2024/04/06 04:53:08;;;;;;;2.17;0.93;;;;;;;;;;5012254;28;20124;-66
2024/04/06 04:55:36;;;;;;;1.70;1.05;;;;;;;;;;5029718;28;20033;-66
2024/04/06 04:58:01;;;;;;;6.10;1.17;;;;;;;;;;5032227;28;20049;-66
2024/04/06 05:00:26;;;;;;;1.67;1.10;;;;;;;;;;5026406;28;20084;-67
2024/04/06 05:02:52;;;;;;;3.50;1.10;;;;;;;;;;5012143;28;20041;-66
2024/04/06 05:05:17;;;;;;;4.40;1.38;;;;;;;;;;5012170;28;20048;-67
2024/04/06 05:07:42;;;;;;;2.80;0.98;;;;;;;;;;5012735;28;20064;-66
2024/04/06 05:10:09;;;;;;;2.55;0.90;;;;;;;;;;5010980;28;20046;-67
2024/04/06 05:12:35;;;;;;;2.88;1.05;;;;;;;;;;5011853;28;20050;-66
2024/04/06 05:15:01;;;;;;;3.08;1.02;;;;;;;;;;5012792;28;20048;-66
2024/04/06 05:17:26;;;;;;;7.18;1.02;;;;;;;;;;5012283;28;20414;-67
2024/04/06 05:19:51;;;;;;;2.00;1.05;;;;;;;;;;5012503;28;20038;-67
2024/04/06 05:22:17;;;;;;;2.38;0.93;;;;;;;;;;5010322;28;20049;-67
2024/04/06 05:24:42;;;;;;;1.88;1.10;;;;;;;;;;5011554;28;20049;-66
2024/04/06 05:27:07;;;;;;;2.80;0.70;;;;;;;;;;5011472;28;20041;-66
2024/04/06 05:29:33;;;;;;;1.58;1.30;;;;;;;;;;5015605;28;20134;-67
2024/04/06 05:31:58;;;;;;;3.92;0.90;;;;;;;;;;5010259;28;20065;-66
2024/04/06 05:34:24;;;;;;;1.95;0.90;;;;;;;;;;5012023;28;20397;-66
2024/04/06 05:36:50;;;;;;;2.00;1.05;;;;;;;;;;5026790;28;20046;-67
2024/04/06 05:39:15;;;;;;;2.20;0.88;;;;;;;;;;5015141;28;20045;-71
2024/04/06 05:41:40;;;;;;;1.83;0.75;;;;;;;;;;5032140;28;20048;-71
2024/04/06 05:44:06;;;;;;;1.20;1.00;;;;;;;;;;5031421;28;20378;-71
2024/04/06 05:46:31;;;;;;;1.92;1.13;;;;;;;;;;5031904;28;20049;-71
2024/04/06 05:48:59;;;;;;;2.65;1.35;;;;;;;;;;5015151;28;20050;-71
2024/04/06 05:51:24;;;;;;;7.35;0.90;;;;;;;;;;5043436;28;20056;-71
2024/04/06 05:53:50;;;;;;;1.33;0.88;;;;;;;;;;5010907;28;20113;-69
2024/04/06 05:56:15;;;;;;;0.80;0.70;;;;;;;;;;5012811;28;20034;-67
2024/04/06 05:58:41;;;;;;;2.10;0.90;;;;;;;;;;5011348;28;20520;-67
2024/04/06 06:01:07;;;;;;;3.92;0.90;;;;;;;;;;5011907;28;20050;-67
2024/04/06 06:03:32;;;;;;;0.98;0.70;;;;;;;;;;5011037;28;20168;-66
2024/04/06 06:05:58;;;;;;;0.70;0.63;;;;;;;;;;5011674;28;20042;-67
2024/04/06 06:08:23;;;;;;;0.80;0.70;;;;;;;;;;5026420;28;20042;-67
2024/04/06 06:10:48;;;;;;;3.47;0.90;;;;;;;;;;5011130;28;20053;-66
2024/04/06 06:13:14;;;;;;;2.70;1.20;;;;;;;;;;5010153;28;20120;-66
2024/04/06 06:15:39;;;;;;;1.40;1.00;;;;;;;;;;5011569;28;20036;-67
2024/04/06 06:18:04;;;;;;;3.88;0.77;;;;;;;;;;5025618;28;20046;-67
2024/04/06 06:20:29;;;;;;;1.25;0.63;;;;;;;;;;5011321;28;20064;-66
2024/04/06 06:22:55;;;;;;;4.00;0.80;;;;;;;;;;5010858;28;20046;-66
2024/04/06 06:25:20;;;;;;;1.63;1.30;;;;;;;;;;5011323;28;20520;-66
2024/04/06 06:27:46;;;;;;;3.05;0.68;;;;;;;;;;5025680;28;20095;-66
2024/04/06 06:30:11;;;;;;;1.48;0.82;;;;;;;;;;5011289;28;20042;-66
2024/04/06 06:32:36;;;;;;;2.10;0.63;;;;;;;;;;5025889;28;20065;-67
2024/04/06 06:35:02;;;;;;;2.10;0.65;;;;;;;;;;5011304;28;20057;-67
2024/04/06 06:37:27;;;;;;;0.43;0.43;;;;;;;;;;5010034;28;20038;-67
2024/04/06 06:39:53;;;;;;;1.88;0.57;;;;;;;;;;5010865;28;20046;-67
2024/04/06 06:42:18;;;;;;;2.95;1.20;;;;;;;;;;5009431;28;20037;-67
2024/04/06 06:44:43;;;;;;;2.22;0.60;;;;;;;;;;5010196;28;20046;-67
2024/04/06 06:47:09;;;;;;;1.80;0.52;;;;;;;;;;5010646;28;20045;-68
2024/04/06 06:49:34;;;;;;;1.60;0.95;;;;;;;;;;5010869;28;20053;-68
2024/04/06 06:51:59;;;;;;;3.17;0.60;;;;;;;;;;5008939;28;20497;-68
2024/04/06 06:54:27;;;;;;;1.38;0.50;;;;;;;;;;5010902;28;20046;-68
2024/04/06 06:56:52;;;;;;;0.90;0.50;;;;;;;;;;5010447;28;20058;-67
2024/04/06 06:59:17;;;;;;;0.45;0.40;;;;;;;;;;5010042;28;20065;-66
2024/04/06 07:01:42;;;;;;;0.80;0.50;;;;;;;;;;4992598;23;20369;-85
2024/04/06 07:04:08;;;;;;;0.85;0.40;;;;;;;;;;4949082;28;20040;-86
2024/04/06 07:06:33;;;;;;;1.52;0.70;;;;;;;;;;4948893;28;20403;-85
2024/04/06 07:08:59;;;;;;;1.50;0.50;;;;;;;;;;4948393;28;20054;-85
2024/04/06 07:11:24;;;;;;;4.00;0.60;;;;;;;;;;4933141;28;20048;-85
2024/04/06 07:13:50;;;;;;;0.98;0.40;;;;;;;;;;4947940;28;20039;-85
2024/04/06 07:16:15;;;;;;;1.55;0.50;;;;;;;;;;4933062;28;20047;-85
2024/04/06 07:18:41;;;;;;;3.92;0.70;;;;;;;;;;4932014;28;20047;-85
2024/04/06 07:21:08;;;;;;;1.20;0.50;;;;;;;;;;4932633;28;20043;-85
2024/04/06 07:23:33;;;;;;;0.93;0.82;;;;;;;;;;4948185;28;20046;-85
2024/04/06 07:25:59;;;;;;;1.10;0.65;;;;;;;;;;4948631;28;20055;-82
2024/04/06 07:28:24;;;;;;;4.53;1.10;;;;;;;;;;4947643;28;20132;-82
2024/04/06 07:30:49;;;;;;;1.67;0.82;;;;;;;;;;4932592;28;20411;-83
2024/04/06 07:33:15;;;;;;;1.45;0.80;;;;;;;;;;4948296;28;20500;-83
2024/04/06 07:35:40;;;;;;;0.85;0.55;;;;;;;;;;4948490;28;20059;-84
2024/04/06 07:38:06;;;;;;;0.80;0.60;;;;;;;;;;4948035;28;20044;-85
2024/04/06 07:40:32;;;;;;;1.75;0.63;;;;;;;;;;4916491;28;20040;-85
2024/04/06 07:42:57;;;;;;;3.85;0.82;;;;;;;;;;4931771;28;20055;-85
2024/04/06 07:45:23;;;;;;;0.82;0.52;;;;;;;;;;4932583;28;20046;-86
2024/04/06 07:47:48;;;;;;;0.88;0.73;;;;;;;;;;4947604;28;20048;-86
2024/04/06 07:50:14;;;;;;;1.85;0.65;;;;;;;;;;4934066;28;20040;-86
2024/04/06 07:52:40;;;;;;;1.50;0.55;;;;;;;;;;4934993;28;20071;-86
2024/04/06 07:55:05;;;;;;;1.85;0.60;;;;;;;;;;4935800;28;20114;-85
2024/04/06 07:57:31;;;;;;;4.43;0.60;;;;;;;;;;4951448;28;20050;-85
2024/04/06 07:59:58;;;;;;;1.88;0.60;;;;;;;;;;4935596;28;20071;-85
2024/04/06 08:02:23;;;;;;;1.45;0.55;;;;;;;;;;4951327;28;20043;-86
2024/04/06 08:04:50;;;;;;;1.67;0.70;;;;;;;;;;4935790;28;20044;-85
2024/04/06 08:07:15;;;;;;;1.73;0.73;;;;;;;;;;4935482;28;20039;-85
2024/04/06 08:09:41;;;;;;;0.90;0.60;;;;;;;;;;4935786;28;20122;-85
2024/04/06 08:12:06;;;;;;;1.98;0.90;;;;;;;;;;4950970;28;20051;-86
2024/04/06 08:14:32;;;;;;;3.20;0.85;;;;;;;;;;4951677;28;20551;-85
2024/04/06 08:16:57;;;;;;;1.77;0.55;;;;;;;;;;4950952;28;20107;-85
2024/04/06 08:19:23;;;;;;;4.03;0.82;;;;;;;;;;4950995;28;20040;-84
2024/04/06 08:21:48;;;;;;;3.08;0.98;;;;;;;;;;4950826;28;20051;-85
2024/04/06 08:24:14;;;;;;;0.50;0.50;;;;;;;;;;4951754;28;20118;-84
2024/04/06 08:26:39;;;;;;;1.25;0.60;;;;;;;;;;4587635;28;10000307;-84
2024/04/06 08:29:04;;;;;;;2.63;0.73;;;;;;;;;;4950234;28;20040;-84
2024/04/06 08:31:30;;;;;;;0.60;0.60;;;;;;;;;;4950881;28;20050;-83
2024/04/06 08:33:55;;;;;;;2.25;0.52;;;;;;;;;;4934432;28;20039;-84
2024/04/06 08:36:20;;;;;;;1.05;0.68;;;;;;;;;;4951141;28;20044;-83
2024/04/06 08:38:45;;;;;;;2.75;1.13;;;;;;;;;;4950932;28;20110;-83
2024/04/06 08:41:12;;;;;;;0.90;0.65;;;;;;;;;;4935136;28;20527;-83
2024/04/06 08:43:43;;;;;;;4.25;0.90;;;;;;;;;;4934501;28;20043;-83
2024/04/06 08:46:09;;;;;;;1.13;0.73;;;;;;;;;;4951063;28;20519;-83
2024/04/06 08:48:36;;;;;;;0.90;0.60;;;;;;;;;;4950408;28;20039;-83
2024/04/06 08:51:03;;;;;;;0.65;0.50;;;;;;;;;;4950680;28;20046;-83
2024/04/06 08:53:29;;;;;;;2.17;1.20;;;;;;;;;;4934508;28;20550;-84
2024/04/06 08:55:55;;;;;;;5.35;0.80;;;;;;;;;;4934736;28;20526;-83
2024/04/06 08:58:20;;;;;;;2.17;1.15;;;;;;;;;;4934235;28;20040;-83
2024/04/06 09:00:48;;;;;;;2.67;1.10;;;;;;;;;;4950503;28;20058;-83
2024/04/06 09:03:13;;;;;;;2.95;0.82;;;;;;;;;;4950346;28;20110;-83
2024/04/06 09:05:42;;;;;;;4.28;0.85;;;;;;;;;;4934741;28;20039;-83
2024/04/06 09:08:07;;;;;;;2.17;0.93;;;;;;;;;;4934115;28;20075;-84
2024/04/06 09:10:33;;;;;;;3.92;1.42;;;;;;;;;;4934392;28;20062;-85
2024/04/06 09:12:58;;;;;;;1.83;0.80;;;;;;;;;;4949830;28;20587;-84
2024/04/06 09:15:24;;;;;;;2.47;0.63;;;;;;;;;;4934774;28;20039;-85
2024/04/06 09:17:49;;;;;;;4.93;0.90;;;;;;;;;;4950530;28;20107;-86
2024/04/06 09:20:14;;;;;;;4.10;1.00;;;;;;;;;;4951713;28;20059;-84
2024/04/06 09:22:42;;;;;;;4.50;0.82;;;;;;;;;;4950193;28;20047;-84
2024/04/06 09:25:10;;;;;;;2.80;0.75;;;;;;;;;;4950484;28;20047;-85
2024/04/06 09:27:42;;;;;;;3.25;0.90;;;;;;;;;;4950128;28;20043;-87
2024/04/06 09:30:08;;;;;;;1.75;0.93;;;;;;;;;;4951077;28;20082;-87
2024/04/06 09:32:35;;;;;;;1.27;0.85;;;;;;;;;;4950278;28;20587;-86
2024/04/06 09:35:02;;;;;;;1.80;0.98;;;;;;;;;;4919290;28;20126;-86
2024/04/06 09:37:33;;;;;;;1.80;0.70;;;;;;;;;;4950339;28;20498;-86
2024/04/06 09:39:59;;;;;;;2.30;0.82;;;;;;;;;;4950584;28;20047;-86
2024/04/06 09:42:25;;;;;;;3.47;1.02;;;;;;;;;;4949991;28;20526;-87
2024/04/06 09:44:53;;;;;;;3.85;0.90;;;;;;;;;;4934368;28;20050;-86
2024/04/06 09:47:21;;;;;;;2.22;0.75;;;;;;;;;;4949329;28;20040;-86
2024/04/06 09:49:48;;;;;;;1.70;0.90;;;;;;;;;;4950320;28;20127;-86
2024/04/06 09:52:14;;;;;;;3.13;0.98;;;;;;;;;;4949095;28;20503;-86
2024/04/06 09:54:40;;;;;;;2.17;1.00;;;;;;;;;;4933779;28;20134;-86
2024/04/06 09:57:06;;;;;;;4.25;1.13;;;;;;;;;;4949061;28;20083;-86
2024/04/06 09:59:31;;;;;;;4.68;0.70;;;;;;;;;;4933878;28;20039;-86
2024/04/06 10:01:56;;;;;;;3.03;0.95;;;;;;;;;;4948946;28;20059;-87
2024/04/06 10:04:27;;;;;;;1.33;0.80;;;;;;;;;;4934037;28;20028;-86
2024/04/06 10:06:56;;;;;;;2.03;1.10;;;;;;;;;;4959433;28;20443;-86
2024/04/06 10:09:28;;;;;;;1.90;0.73;;;;;;;;;;4972148;28;20042;-86
2024/04/06 10:12:02;;;;;;;1.50;0.80;;;;;;;;;;4987365;28;20133;-87
2024/04/06 10:14:29;;;;;;;2.10;0.73;;;;;;;;;;4987639;28;20458;-87
2024/04/06 10:17:14;;;;;;;2.92;0.77;;;;;;;;;;4987093;28;20651;-87
2024/04/06 10:19:39;;;;;;;1.92;0.80;;;;;;;;;;4987691;28;20126;-87
2024/04/06 10:22:06;;;;;;;1.67;0.90;;;;;;;;;;4971686;28;20130;-87
2024/04/06 10:24:34;;;;;;;1.33;0.70;;;;;;;;;;4971816;28;20109;-87
2024/04/06 10:26:59;;;;;;;3.47;0.60;;;;;;;;;;4971182;28;20502;-87
2024/04/06 10:29:26;;;;;;;2.03;0.85;;;;;;;;;;4971487;28;20030;-86
2024/04/06 10:31:52;;;;;;;1.70;0.70;;;;;;;;;;4987028;28;20038;-85
2024/04/06 10:34:17;;;;;;;4.15;1.20;;;;;;;;;;4973006;28;20166;-87
2024/04/06 10:36:43;;;;;;;2.17;0.55;;;;;;;;;;4987568;28;20039;-86
2024/04/06 10:39:08;;;;;;;1.10;0.63;;;;;;;;;;4987463;28;20034;-86
2024/04/06 10:41:35;;;;;;;1.08;0.60;;;;;;;;;;4972295;28;20037;-85
2024/04/06 10:44:01;;;;;;;1.20;0.70;;;;;;;;;;4986843;28;20053;-85
2024/04/06 10:46:26;;;;;;;3.15;0.82;;;;;;;;;;4987248;28;20038;-84
2024/04/06 10:48:51;;;;;;;2.72;0.80;;;;;;;;;;4986553;28;20042;-83
2024/04/06 10:51:17;;;;;;;1.85;1.05;;;;;;;;;;4971529;28;20414;-83
2024/04/06 10:53:43;;;;;;;1.80;1.17;;;;;;;;;;4970368;28;20047;-83
2024/04/06 10:56:09;;;;;;;1.10;0.70;;;;;;;;;;4970885;28;20493;-84
2024/04/06 10:58:34;;;;;;;3.33;0.80;;;;;;;;;;4970267;28;20560;-84
2024/04/06 11:01:13;;;;;;;1.92;0.85;;;;;;;;;;4972206;28;20410;-83
2024/04/06 11:03:38;;;;;;;2.63;1.02;;;;;;;;;;4970534;28;20390;-83
2024/04/06 11:06:05;;;;;;;1.10;0.80;;;;;;;;;;4972547;28;20043;-84
2024/04/06 11:08:31;;;;;;;1.20;1.10;;;;;;;;;;4986481;28;20618;-82
2024/04/06 11:10:56;;;;;;;3.50;0.82;;;;;;;;;;4970847;28;20125;-84
2024/04/06 11:13:22;;;;;;;1.23;0.63;;;;;;;;;;4970052;28;20047;-83
2024/04/06 11:15:49;;;;;;;3.55;1.05;;;;;;;;;;4970533;28;20099;-86
2024/04/06 11:18:15;;;;;;;3.80;1.20;;;;;;;;;;4970335;28;20561;-83
2024/04/06 11:20:41;;;;;;;2.35;1.00;;;;;;;;;;4987011;28;20050;-84
2024/04/06 11:23:16;;;;;;;4.68;0.80;;;;;;;;;;4969964;28;20051;-84
2024/04/06 11:25:42;;;;;;;4.90;1.00;;;;;;;;;;4974381;28;20053;-84
2024/04/06 11:28:07;;;;;;;2.55;1.00;;;;;;;;;;4990173;28;20047;-83
2024/04/06 11:30:32;;;;;;;0.65;0.52;;;;;;;;;;4974544;28;20517;-83
2024/04/06 11:32:58;;;;;;;2.50;0.88;;;;;;;;;;4973857;28;20477;-86
2024/04/06 11:35:23;;;;;;;2.67;0.80;;;;;;;;;;4974703;28;20454;-87
2024/04/06 11:37:48;;;;;;;4.43;0.98;;;;;;;;;;4973911;28;20050;-87
2024/04/06 11:40:14;;;;;;;2.78;0.90;;;;;;;;;;4974948;28;20122;-87
2024/04/06 11:42:39;;;;;;;1.70;0.70;;;;;;;;;;4974187;28;20069;-90
2024/04/06 11:45:05;;;;;;;1.17;0.68;;;;;;;;;;4974559;28;20047;-90
2024/04/06 11:47:31;;;;;;;2.10;0.80;;;;;;;;;;4974192;28;20043;-91
2024/04/06 11:49:56;;;;;;;1.00;0.90;;;;;;;;;;4974373;28;20043;-89
2024/04/06 11:52:21;;;;;;;2.35;0.73;;;;;;;;;;4973856;28;20053;-87
2024/04/06 11:54:47;;;;;;;1.80;0.80;;;;;;;;;;4975023;28;20077;-88
2024/04/06 11:57:12;;;;;;;5.05;1.67;;;;;;;;;;4974016;28;20475;-89
2024/04/06 11:59:38;;;;;;;3.13;1.02;;;;;;;;;;4990823;28;20050;-88
2024/04/06 12:02:03;;;;;;;1.83;0.60;;;;;;;;;;4989663;28;20054;-90
2024/04/06 12:04:28;;;;;;;1.65;0.55;;;;;;;;;;4990076;28;20043;-89
2024/04/06 12:06:54;;;;;;;1.60;0.70;;;;;;;;;;4974174;28;20053;-89
2024/04/06 12:09:19;;;;;;;0.90;0.60;;;;;;;;;;4974039;28;20051;-89
2024/04/06 12:11:45;;;;;;;3.63;0.90;;;;;;;;;;4973662;28;20043;-92
2024/04/06 12:14:10;;;;;;;1.50;0.80;;;;;;;;;;4974239;28;20043;-89
2024/04/06 12:16:36;;;;;;;1.13;0.70;;;;;;;;;;4974092;28;20043;-90
2024/04/06 12:19:01;;;;;;;0.95;0.75;;;;;;;;;;4973503;28;20487;-89
2024/04/06 12:21:27;;;;;;;4.22;0.80;;;;;;;;;;4990453;28;20529;-89
2024/04/06 12:23:53;;;;;;;2.20;0.70;;;;;;;;;;4974855;28;20049;-89
2024/04/06 12:26:19;;;;;;;1.67;0.70;;;;;;;;;;4990264;28;20031;-89
2024/04/06 12:28:44;;;;;;;4.22;1.42;;;;;;;;;;4973809;28;20035;-89
2024/04/06 12:31:10;;;;;;;2.30;0.80;;;;;;;;;;4990187;28;20042;-90
2024/04/06 12:33:36;;;;;;;3.88;0.98;;;;;;;;;;4973529;28;20046;-90
2024/04/06 12:36:01;;;;;;;2.70;0.93;;;;;;;;;;4973323;28;20047;-91
2024/04/06 12:38:27;;;;;;;0.80;0.70;;;;;;;;;;4973426;28;20445;-89
2024/04/06 12:40:52;;;;;;;2.95;1.10;;;;;;;;;;4968150;28;20042;-84
2024/04/06 12:43:17;;;;;;;2.42;1.13;;;;;;;;;;4972827;28;20051;-86
2024/04/06 12:45:43;;;;;;;6.38;1.02;;;;;;;;;;4973391;28;20850;-86
2024/04/06 12:48:09;;;;;;;2.30;0.85;;;;;;;;;;4988705;28;20521;-85
2024/04/06 12:50:34;;;;;;;4.47;0.70;;;;;;;;;;4973010;28;20042;-86
2024/04/06 12:52:59;;;;;;;4.15;1.13;;;;;;;;;;4988504;28;20062;-86
2024/04/06 12:55:25;;;;;;;1.13;0.60;;;;;;;;;;4972983;28;20517;-86
2024/04/06 12:57:50;;;;;;;1.45;0.80;;;;;;;;;;4988687;28;20042;-85
2024/04/06 13:00:15;;;;;;;3.08;0.85;;;;;;;;;;4989409;28;20046;-85
2024/04/06 13:02:43;;;;;;;5.68;1.00;;;;;;;;;;4972129;28;20041;-85
2024/04/06 13:05:08;;;;;;;1.52;0.98;;;;;;;;;;4956418;28;20043;-85
2024/04/06 13:07:35;;;;;;;1.40;0.77;;;;;;;;;;4988251;28;20042;-85
2024/04/06 13:10:01;;;;;;;4.30;0.90;;;;;;;;;;4973908;28;20102;-85
2024/04/06 13:12:30;;;;;;;2.50;0.90;;;;;;;;;;4971659;28;20051;-85
2024/04/06 13:15:00;;;;;;;5.28;1.58;;;;;;;;;;4972415;28;20046;-85
2024/04/06 13:17:26;;;;;;;3.72;0.98;;;;;;;;;;4971879;28;20045;-86
2024/04/06 13:19:52;;;;;;;2.10;0.90;;;;;;;;;;4988668;28;20047;-85
2024/04/06 13:22:18;;;;;;;2.38;1.30;;;;;;;;;;4973735;28;20176;-86
2024/04/06 13:24:43;;;;;;;2.80;0.80;;;;;;;;;;4972687;28;20043;-86
2024/04/06 13:27:09;;;;;;;2.03;0.90;;;;;;;;;;4972753;28;20402;-85
2024/04/06 13:29:34;;;;;;;2.85;0.90;;;;;;;;;;4988335;28;20062;-85
2024/04/06 13:32:00;;;;;;;2.72;0.95;;;;;;;;;;4971469;28;20043;-86
2024/04/06 13:34:25;;;;;;;4.18;0.80;;;;;;;;;;4972405;28;20384;-86
2024/04/06 13:36:52;;;;;;;1.85;1.38;;;;;;;;;;4971743;28;20140;-83
2024/04/06 13:39:19;;;;;;;2.35;0.75;;;;;;;;;;4988665;28;20517;-83
2024/04/06 13:41:46;;;;;;;5.85;1.65;;;;;;;;;;4971279;28;20035;-84
2024/04/06 13:44:11;;;;;;;1.92;1.08;;;;;;;;;;4971646;28;20506;-83
2024/04/06 13:46:37;;;;;;;3.30;0.60;;;;;;;;;;4971720;28;20049;-84
2024/04/06 13:49:02;;;;;;;2.85;1.63;;;;;;;;;;4970961;28;20121;-84
2024/04/06 13:51:27;;;;;;;8.27;1.10;;;;;;;;;;4971937;28;20057;-87
2024/04/06 13:53:53;;;;;;;1.85;0.82;;;;;;;;;;4971263;28;20049;-86
2024/04/06 13:56:19;;;;;;;1.20;0.80;;;;;;;;;;4971626;28;20027;-87
2024/04/06 13:58:45;;;;;;;2.63;1.15;;;;;;;;;;4971529;28;20047;-83
2024/04/06 14:01:13;;;;;;;4.97;1.20;;;;;;;;;;4971276;28;20042;-87
2024/04/06 14:03:38;;;;;;;3.40;1.10;;;;;;;;;;4987295;28;20070;-88
2024/04/06 14:06:04;;;;;;;2.67;1.30;;;;;;;;;;4971242;28;20035;-88
2024/04/06 14:08:31;;;;;;;2.60;0.85;;;;;;;;;;4987318;28;20042;-86
2024/04/06 14:10:56;;;;;;;2.67;1.08;;;;;;;;;;4972888;28;20514;-86
2024/04/06 14:13:25;;;;;;;2.28;1.00;;;;;;;;;;4971343;28;20069;-87
2024/04/06 14:15:50;;;;;;;1.92;1.17;;;;;;;;;;4972399;28;20073;-86
2024/04/06 14:18:16;;;;;;;4.47;1.20;;;;;;;;;;4988487;28;20039;-86
2024/04/06 14:20:41;;;;;;;4.43;0.93;;;;;;;;;;4973895;28;20038;-86
2024/04/06 14:23:06;;;;;;;2.13;0.90;;;;;;;;;;4987783;28;20041;-86
2024/04/06 14:25:32;;;;;;;0.98;0.63;;;;;;;;;;4972680;28;20043;-88
2024/04/06 14:27:57;;;;;;;1.38;0.80;;;;;;;;;;4988013;28;20069;-88
2024/04/06 14:30:29;;;;;;;3.40;0.98;;;;;;;;;;4973408;28;20039;-86
2024/04/06 14:32:58;;;;;;;2.90;0.60;;;;;;;;;;4971640;28;20047;-86
2024/04/06 14:35:24;;;;;;;3.22;0.85;;;;;;;;;;4988123;28;20038;-86